sensor_id;sensor_type;location;lat;lon;timestamp;P1;durP1;ratioP1;P2;durP2;ratioP2
42332;SDS011;27984;51.476;5.702;2024-02-23T00:00:03;3.25;;;2.40;;
42332;SDS011;27984;51.476;5.702;2024-02-23T00:02:31;4.18;;;3.03;;
42332;SDS011;27984;51.476;5.702;2024-02-23T00:04:57;5.47;;;3.70;;
42332;SDS011;27984;51.476;5.702;2024-02-23T00:07:23;4.82;;;3.28;;
42332;SDS011;27984;51.476;5.702;2024-02-23T00:09:49;5.63;;;3.70;;
42332;SDS011;27984;51.476;5.702;2024-02-23T00:12:15;6.38;;;4.03;;
42332;SDS011;27984;51.476;5.702;2024-02-23T00:14:41;5.50;;;4.07;;
42332;SDS011;27984;51.476;5.702;2024-02-23T00:17:07;8.57;;;4.40;;
42332;SDS011;27984;51.476;5.702;2024-02-23T00:19:33;7.70;;;4.57;;
42332;SDS011;27984;51.476;5.702;2024-02-23T00:21:59;6.90;;;4.25;;
42332;SDS011;27984;51.476;5.702;2024-02-23T00:24:25;4.35;;;3.80;;
42332;SDS011;27984;51.476;5.702;2024-02-23T00:26:51;4.13;;;3.50;;
42332;SDS011;27984;51.476;5.702;2024-02-23T00:29:17;7.03;;;3.38;;
42332;SDS011;27984;51.476;5.702;2024-02-23T00:31:43;3.85;;;3.20;;
42332;SDS011;27984;51.476;5.702;2024-02-23T00:34:13;5.57;;;3.13;;
42332;SDS011;27984;51.476;5.702;2024-02-23T00:36:40;5.03;;;3.35;;
42332;SDS011;27984;51.476;5.702;2024-02-23T00:39:06;6.75;;;3.10;;
42332;SDS011;27984;51.476;5.702;2024-02-23T00:41:36;8.75;;;2.92;;
42332;SDS011;27984;51.476;5.702;2024-02-23T00:44:02;6.72;;;2.55;;
42332;SDS011;27984;51.476;5.702;2024-02-23T00:46:28;8.43;;;2.80;;
42332;SDS011;27984;51.476;5.702;2024-02-23T00:48:54;3.13;;;2.45;;
42332;SDS011;27984;51.476;5.702;2024-02-23T00:51:20;7.32;;;2.60;;
42332;SDS011;27984;51.476;5.702;2024-02-23T00:53:46;4.32;;;2.58;;
42332;SDS011;27984;51.476;5.702;2024-02-23T00:56:12;5.22;;;2.03;;
42332;SDS011;27984;51.476;5.702;2024-02-23T00:58:38;2.97;;;2.03;;
42332;SDS011;27984;51.476;5.702;2024-02-23T01:01:05;6.57;;;2.00;;
42332;SDS011;27984;51.476;5.702;2024-02-23T01:03:30;6.15;;;1.75;;
42332;SDS011;27984;51.476;5.702;2024-02-23T01:05:56;6.03;;;1.70;;
42332;SDS011;27984;51.476;5.702;2024-02-23T01:08:22;2.60;;;1.58;;
42332;SDS011;27984;51.476;5.702;2024-02-23T01:10:48;2.85;;;1.60;;
42332;SDS011;27984;51.476;5.702;2024-02-23T01:13:14;4.20;;;1.48;;
42332;SDS011;27984;51.476;5.702;2024-02-23T01:15:41;9.85;;;1.40;;
42332;SDS011;27984;51.476;5.702;2024-02-23T01:18:07;4.90;;;1.17;;
42332;SDS011;27984;51.476;5.702;2024-02-23T01:20:33;6.10;;;1.08;;
42332;SDS011;27984;51.476;5.702;2024-02-23T01:23:00;5.75;;;1.27;;
42332;SDS011;27984;51.476;5.702;2024-02-23T01:25:26;4.78;;;1.20;;
42332;SDS011;27984;51.476;5.702;2024-02-23T01:27:52;5.53;;;1.30;;
42332;SDS011;27984;51.476;5.702;2024-02-23T01:30:18;4.75;;;1.30;;
42332;SDS011;27984;51.476;5.702;2024-02-23T01:32:45;5.90;;;1.33;;
42332;SDS011;27984;51.476;5.702;2024-02-23T01:35:11;7.55;;;1.50;;
42332;SDS011;27984;51.476;5.702;2024-02-23T01:37:37;10.80;;;1.70;;
42332;SDS011;27984;51.476;5.702;2024-02-23T01:40:03;7.10;;;1.85;;
42332;SDS011;27984;51.476;5.702;2024-02-23T01:42:29;5.35;;;1.75;;
42332;SDS011;27984;51.476;5.702;2024-02-23T01:44:55;5.40;;;1.55;;
42332;SDS011;27984;51.476;5.702;2024-02-23T01:47:22;5.72;;;1.42;;
42332;SDS011;27984;51.476;5.702;2024-02-23T01:49:48;11.93;;;1.73;;
42332;SDS011;27984;51.476;5.702;2024-02-23T01:52:14;6.38;;;1.30;;
42332;SDS011;27984;51.476;5.702;2024-02-23T01:54:40;4.93;;;1.60;;
42332;SDS011;27984;51.476;5.702;2024-02-23T01:57:07;5.75;;;1.60;;
42332;SDS011;27984;51.476;5.702;2024-02-23T01:59:34;7.13;;;1.55;;
42332;SDS011;27984;51.476;5.702;2024-02-23T02:02:02;4.90;;;1.70;;
42332;SDS011;27984;51.476;5.702;2024-02-23T02:04:28;5.18;;;1.80;;
42332;SDS011;27984;51.476;5.702;2024-02-23T02:06:54;6.72;;;1.60;;
42332;SDS011;27984;51.476;5.702;2024-02-23T02:09:20;3.80;;;1.40;;
42332;SDS011;27984;51.476;5.702;2024-02-23T02:11:47;6.00;;;1.50;;
42332;SDS011;27984;51.476;5.702;2024-02-23T02:14:14;5.50;;;1.60;;
42332;SDS011;27984;51.476;5.702;2024-02-23T02:16:40;5.95;;;1.55;;
42332;SDS011;27984;51.476;5.702;2024-02-23T02:19:06;9.88;;;1.70;;
42332;SDS011;27984;51.476;5.702;2024-02-23T02:21:32;4.32;;;1.30;;
42332;SDS011;27984;51.476;5.702;2024-02-23T02:23:58;5.45;;;1.25;;
42332;SDS011;27984;51.476;5.702;2024-02-23T02:26:24;5.20;;;1.30;;
42332;SDS011;27984;51.476;5.702;2024-02-23T02:28:50;5.15;;;1.30;;
42332;SDS011;27984;51.476;5.702;2024-02-23T02:31:17;6.88;;;1.30;;
42332;SDS011;27984;51.476;5.702;2024-02-23T02:33:43;7.10;;;1.35;;
42332;SDS011;27984;51.476;5.702;2024-02-23T02:36:09;6.13;;;1.55;;
42332;SDS011;27984;51.476;5.702;2024-02-23T02:38:36;3.53;;;1.45;;
42332;SDS011;27984;51.476;5.702;2024-02-23T02:41:02;5.20;;;1.23;;
42332;SDS011;27984;51.476;5.702;2024-02-23T02:43:29;6.85;;;1.50;;
42332;SDS011;27984;51.476;5.702;2024-02-23T02:45:55;6.18;;;1.40;;
42332;SDS011;27984;51.476;5.702;2024-02-23T02:48:22;5.50;;;1.40;;
42332;SDS011;27984;51.476;5.702;2024-02-23T02:50:48;7.15;;;1.52;;
42332;SDS011;27984;51.476;5.702;2024-02-23T02:53:15;4.22;;;1.30;;
42332;SDS011;27984;51.476;5.702;2024-02-23T02:55:44;7.30;;;1.40;;
42332;SDS011;27984;51.476;5.702;2024-02-23T02:58:13;5.68;;;1.52;;
42332;SDS011;27984;51.476;5.702;2024-02-23T03:00:39;6.97;;;1.40;;
42332;SDS011;27984;51.476;5.702;2024-02-23T03:03:05;10.95;;;1.80;;
42332;SDS011;27984;51.476;5.702;2024-02-23T03:05:32;4.32;;;1.40;;
42332;SDS011;27984;51.476;5.702;2024-02-23T03:07:58;3.30;;;1.48;;
42332;SDS011;27984;51.476;5.702;2024-02-23T03:10:24;5.97;;;1.98;;
42332;SDS011;27984;51.476;5.702;2024-02-23T03:12:50;8.25;;;1.90;;
42332;SDS011;27984;51.476;5.702;2024-02-23T03:15:16;9.55;;;2.10;;
42332;SDS011;27984;51.476;5.702;2024-02-23T03:17:42;10.52;;;2.03;;
42332;SDS011;27984;51.476;5.702;2024-02-23T03:20:08;5.90;;;1.95;;
42332;SDS011;27984;51.476;5.702;2024-02-23T03:22:35;7.03;;;1.75;;
42332;SDS011;27984;51.476;5.702;2024-02-23T03:25:01;5.90;;;1.95;;
42332;SDS011;27984;51.476;5.702;2024-02-23T03:27:36;3.28;;;2.20;;
42332;SDS011;27984;51.476;5.702;2024-02-23T03:30:03;7.97;;;2.00;;
42332;SDS011;27984;51.476;5.702;2024-02-23T03:32:30;7.22;;;1.80;;
42332;SDS011;27984;51.476;5.702;2024-02-23T03:35:02;6.25;;;1.88;;
42332;SDS011;27984;51.476;5.702;2024-02-23T03:37:28;6.18;;;1.88;;
42332;SDS011;27984;51.476;5.702;2024-02-23T03:39:54;6.53;;;2.25;;
42332;SDS011;27984;51.476;5.702;2024-02-23T03:42:20;5.82;;;2.03;;
42332;SDS011;27984;51.476;5.702;2024-02-23T03:44:46;4.30;;;1.90;;
42332;SDS011;27984;51.476;5.702;2024-02-23T03:47:14;6.43;;;1.73;;
42332;SDS011;27984;51.476;5.702;2024-02-23T03:49:39;6.22;;;2.00;;
42332;SDS011;27984;51.476;5.702;2024-02-23T03:52:05;11.23;;;2.22;;
42332;SDS011;27984;51.476;5.702;2024-02-23T03:54:31;6.30;;;2.03;;
42332;SDS011;27984;51.476;5.702;2024-02-23T03:56:57;9.00;;;2.03;;
42332;SDS011;27984;51.476;5.702;2024-02-23T03:59:23;8.95;;;2.35;;
42332;SDS011;27984;51.476;5.702;2024-02-23T04:01:49;4.40;;;1.80;;
42332;SDS011;27984;51.476;5.702;2024-02-23T04:04:15;6.88;;;2.10;;
42332;SDS011;27984;51.476;5.702;2024-02-23T04:06:41;6.95;;;2.13;;
42332;SDS011;27984;51.476;5.702;2024-02-23T04:09:07;6.38;;;1.83;;
42332;SDS011;27984;51.476;5.702;2024-02-23T04:11:33;6.50;;;1.70;;
42332;SDS011;27984;51.476;5.702;2024-02-23T04:13:59;5.05;;;1.80;;
42332;SDS011;27984;51.476;5.702;2024-02-23T04:16:26;5.57;;;1.73;;
42332;SDS011;27984;51.476;5.702;2024-02-23T04:18:55;10.43;;;2.03;;
42332;SDS011;27984;51.476;5.702;2024-02-23T04:21:21;5.88;;;1.77;;
42332;SDS011;27984;51.476;5.702;2024-02-23T04:23:47;5.38;;;1.60;;
42332;SDS011;27984;51.476;5.702;2024-02-23T04:26:13;8.35;;;1.98;;
42332;SDS011;27984;51.476;5.702;2024-02-23T04:28:39;10.18;;;1.80;;
42332;SDS011;27984;51.476;5.702;2024-02-23T04:31:06;6.63;;;1.80;;
42332;SDS011;27984;51.476;5.702;2024-02-23T04:33:32;6.70;;;1.42;;
42332;SDS011;27984;51.476;5.702;2024-02-23T04:35:58;10.55;;;1.95;;
42332;SDS011;27984;51.476;5.702;2024-02-23T04:38:24;8.23;;;1.67;;
42332;SDS011;27984;51.476;5.702;2024-02-23T04:40:49;6.78;;;1.50;;
42332;SDS011;27984;51.476;5.702;2024-02-23T04:43:15;5.28;;;1.67;;
42332;SDS011;27984;51.476;5.702;2024-02-23T04:45:41;6.82;;;1.48;;
42332;SDS011;27984;51.476;5.702;2024-02-23T04:48:07;5.95;;;1.75;;
42332;SDS011;27984;51.476;5.702;2024-02-23T04:50:33;7.97;;;1.40;;
42332;SDS011;27984;51.476;5.702;2024-02-23T04:52:59;6.80;;;1.90;;
42332;SDS011;27984;51.476;5.702;2024-02-23T04:55:25;6.65;;;1.60;;
42332;SDS011;27984;51.476;5.702;2024-02-23T04:57:51;7.70;;;1.60;;
42332;SDS011;27984;51.476;5.702;2024-02-23T05:00:17;4.88;;;1.67;;
42332;SDS011;27984;51.476;5.702;2024-02-23T05:02:44;9.93;;;1.30;;
42332;SDS011;27984;51.476;5.702;2024-02-23T05:05:10;7.05;;;1.60;;
42332;SDS011;27984;51.476;5.702;2024-02-23T05:07:35;6.07;;;1.30;;
42332;SDS011;27984;51.476;5.702;2024-02-23T05:10:01;5.97;;;1.70;;
42332;SDS011;27984;51.476;5.702;2024-02-23T05:12:28;4.25;;;1.25;;
42332;SDS011;27984;51.476;5.702;2024-02-23T05:14:54;5.57;;;1.20;;
42332;SDS011;27984;51.476;5.702;2024-02-23T05:17:20;5.65;;;1.40;;
42332;SDS011;27984;51.476;5.702;2024-02-23T05:19:46;8.43;;;1.52;;
42332;SDS011;27984;51.476;5.702;2024-02-23T05:22:12;10.40;;;1.38;;
42332;SDS011;27984;51.476;5.702;2024-02-23T05:24:38;7.57;;;1.60;;
42332;SDS011;27984;51.476;5.702;2024-02-23T05:27:04;9.18;;;1.88;;
42332;SDS011;27984;51.476;5.702;2024-02-23T05:29:31;10.00;;;1.50;;
42332;SDS011;27984;51.476;5.702;2024-02-23T05:31:57;6.55;;;1.60;;
42332;SDS011;27984;51.476;5.702;2024-02-23T05:34:23;8.63;;;1.42;;
42332;SDS011;27984;51.476;5.702;2024-02-23T05:36:49;3.95;;;1.33;;
42332;SDS011;27984;51.476;5.702;2024-02-23T05:39:16;5.30;;;1.40;;
42332;SDS011;27984;51.476;5.702;2024-02-23T05:41:42;6.05;;;1.60;;
42332;SDS011;27984;51.476;5.702;2024-02-23T05:44:08;8.77;;;1.63;;
42332;SDS011;27984;51.476;5.702;2024-02-23T05:46:35;10.00;;;1.65;;
42332;SDS011;27984;51.476;5.702;2024-02-23T05:49:02;5.93;;;1.55;;
42332;SDS011;27984;51.476;5.702;2024-02-23T05:51:31;7.75;;;1.60;;
42332;SDS011;27984;51.476;5.702;2024-02-23T05:53:57;5.07;;;1.30;;
42332;SDS011;27984;51.476;5.702;2024-02-23T05:56:24;10.20;;;1.50;;
42332;SDS011;27984;51.476;5.702;2024-02-23T05:58:53;9.05;;;1.60;;
42332;SDS011;27984;51.476;5.702;2024-02-23T06:01:19;12.40;;;1.63;;
42332;SDS011;27984;51.476;5.702;2024-02-23T06:03:45;5.75;;;1.52;;
42332;SDS011;27984;51.476;5.702;2024-02-23T06:06:11;5.85;;;1.90;;
42332;SDS011;27984;51.476;5.702;2024-02-23T06:08:37;6.90;;;1.48;;
42332;SDS011;27984;51.476;5.702;2024-02-23T06:11:03;9.25;;;1.73;;
42332;SDS011;27984;51.476;5.702;2024-02-23T06:13:30;5.65;;;1.50;;
42332;SDS011;27984;51.476;5.702;2024-02-23T06:15:56;5.00;;;1.50;;
42332;SDS011;27984;51.476;5.702;2024-02-23T06:18:22;5.60;;;1.42;;
42332;SDS011;27984;51.476;5.702;2024-02-23T06:20:48;12.38;;;1.67;;
42332;SDS011;27984;51.476;5.702;2024-02-23T06:23:15;6.03;;;1.50;;
42332;SDS011;27984;51.476;5.702;2024-02-23T06:25:41;7.28;;;1.70;;
42332;SDS011;27984;51.476;5.702;2024-02-23T06:28:15;4.63;;;1.38;;
42332;SDS011;27984;51.476;5.702;2024-02-23T06:30:41;6.63;;;1.58;;
42332;SDS011;27984;51.476;5.702;2024-02-23T06:33:07;6.15;;;1.45;;
42332;SDS011;27984;51.476;5.702;2024-02-23T06:35:33;8.05;;;1.60;;
42332;SDS011;27984;51.476;5.702;2024-02-23T06:37:59;10.38;;;1.60;;
42332;SDS011;27984;51.476;5.702;2024-02-23T06:40:25;9.98;;;1.70;;
42332;SDS011;27984;51.476;5.702;2024-02-23T06:42:51;9.57;;;1.60;;
42332;SDS011;27984;51.476;5.702;2024-02-23T06:45:17;5.45;;;1.50;;
42332;SDS011;27984;51.476;5.702;2024-02-23T06:47:44;5.68;;;2.03;;
42332;SDS011;27984;51.476;5.702;2024-02-23T06:50:10;9.52;;;1.58;;
42332;SDS011;27984;51.476;5.702;2024-02-23T06:52:36;6.22;;;1.75;;
42332;SDS011;27984;51.476;5.702;2024-02-23T06:55:03;7.43;;;1.67;;
42332;SDS011;27984;51.476;5.702;2024-02-23T06:57:29;8.93;;;1.70;;
42332;SDS011;27984;51.476;5.702;2024-02-23T06:59:56;10.05;;;1.75;;
42332;SDS011;27984;51.476;5.702;2024-02-23T07:02:21;8.07;;;1.65;;
42332;SDS011;27984;51.476;5.702;2024-02-23T07:04:47;11.45;;;1.83;;
42332;SDS011;27984;51.476;5.702;2024-02-23T07:07:13;7.35;;;1.65;;
42332;SDS011;27984;51.476;5.702;2024-02-23T07:09:39;9.63;;;1.70;;
42332;SDS011;27984;51.476;5.702;2024-02-23T07:12:06;4.78;;;1.60;;
42332;SDS011;27984;51.476;5.702;2024-02-23T07:14:32;5.60;;;1.85;;
42332;SDS011;27984;51.476;5.702;2024-02-23T07:16:58;5.80;;;1.40;;
42332;SDS011;27984;51.476;5.702;2024-02-23T07:19:24;8.95;;;2.00;;
42332;SDS011;27984;51.476;5.702;2024-02-23T07:21:50;11.30;;;1.85;;
42332;SDS011;27984;51.476;5.702;2024-02-23T07:24:16;5.82;;;1.25;;
42332;SDS011;27984;51.476;5.702;2024-02-23T07:26:42;7.10;;;1.63;;
42332;SDS011;27984;51.476;5.702;2024-02-23T07:29:08;4.63;;;1.45;;
42332;SDS011;27984;51.476;5.702;2024-02-23T07:31:34;11.68;;;1.88;;
42332;SDS011;27984;51.476;5.702;2024-02-23T07:34:00;6.10;;;1.58;;
42332;SDS011;27984;51.476;5.702;2024-02-23T07:36:26;11.45;;;1.63;;
42332;SDS011;27984;51.476;5.702;2024-02-23T07:38:52;7.47;;;1.55;;
42332;SDS011;27984;51.476;5.702;2024-02-23T07:41:20;8.38;;;1.65;;
42332;SDS011;27984;51.476;5.702;2024-02-23T07:43:46;5.03;;;1.40;;
42332;SDS011;27984;51.476;5.702;2024-02-23T07:46:12;4.35;;;1.65;;
42332;SDS011;27984;51.476;5.702;2024-02-23T07:48:41;7.28;;;1.33;;
42332;SDS011;27984;51.476;5.702;2024-02-23T07:51:07;6.65;;;1.40;;
42332;SDS011;27984;51.476;5.702;2024-02-23T07:53:33;8.82;;;1.35;;
42332;SDS011;27984;51.476;5.702;2024-02-23T07:55:59;6.80;;;1.55;;
42332;SDS011;27984;51.476;5.702;2024-02-23T07:58:27;6.97;;;1.40;;
42332;SDS011;27984;51.476;5.702;2024-02-23T08:00:53;5.78;;;1.30;;
42332;SDS011;27984;51.476;5.702;2024-02-23T08:03:19;7.32;;;1.60;;
42332;SDS011;27984;51.476;5.702;2024-02-23T08:05:48;8.35;;;1.30;;
42332;SDS011;27984;51.476;5.702;2024-02-23T08:08:14;7.85;;;1.55;;
42332;SDS011;27984;51.476;5.702;2024-02-23T08:10:40;6.40;;;1.40;;
42332;SDS011;27984;51.476;5.702;2024-02-23T08:13:07;4.88;;;1.35;;
42332;SDS011;27984;51.476;5.702;2024-02-23T08:15:35;7.43;;;1.40;;
42332;SDS011;27984;51.476;5.702;2024-02-23T08:18:01;5.65;;;1.40;;
42332;SDS011;27984;51.476;5.702;2024-02-23T08:20:27;7.57;;;1.52;;
42332;SDS011;27984;51.476;5.702;2024-02-23T08:22:55;6.53;;;1.40;;
42332;SDS011;27984;51.476;5.702;2024-02-23T08:25:21;5.68;;;1.30;;
42332;SDS011;27984;51.476;5.702;2024-02-23T08:27:47;9.35;;;1.60;;
42332;SDS011;27984;51.476;5.702;2024-02-23T08:30:14;5.93;;;1.40;;
42332;SDS011;27984;51.476;5.702;2024-02-23T08:32:40;7.10;;;1.73;;
42332;SDS011;27984;51.476;5.702;2024-02-23T08:35:06;6.82;;;1.35;;
42332;SDS011;27984;51.476;5.702;2024-02-23T08:37:33;7.55;;;1.40;;
42332;SDS011;27984;51.476;5.702;2024-02-23T08:39:59;9.02;;;1.40;;
42332;SDS011;27984;51.476;5.702;2024-02-23T08:42:26;6.45;;;1.27;;
42332;SDS011;27984;51.476;5.702;2024-02-23T08:44:52;5.50;;;1.25;;
42332;SDS011;27984;51.476;5.702;2024-02-23T08:47:19;8.48;;;1.85;;
42332;SDS011;27984;51.476;5.702;2024-02-23T08:49:45;8.05;;;1.50;;
42332;SDS011;27984;51.476;5.702;2024-02-23T08:52:11;6.07;;;1.20;;
42332;SDS011;27984;51.476;5.702;2024-02-23T08:54:37;9.25;;;1.88;;
42332;SDS011;27984;51.476;5.702;2024-02-23T08:57:04;7.60;;;1.55;;
42332;SDS011;27984;51.476;5.702;2024-02-23T08:59:30;7.32;;;1.65;;
42332;SDS011;27984;51.476;5.702;2024-02-23T09:01:57;11.38;;;1.80;;
42332;SDS011;27984;51.476;5.702;2024-02-23T09:04:22;10.05;;;1.40;;
42332;SDS011;27984;51.476;5.702;2024-02-23T09:06:48;7.68;;;1.52;;
42332;SDS011;27984;51.476;5.702;2024-02-23T09:09:16;10.80;;;1.40;;
42332;SDS011;27984;51.476;5.702;2024-02-23T09:11:42;6.82;;;1.33;;
42332;SDS011;27984;51.476;5.702;2024-02-23T09:14:08;6.93;;;1.63;;
42332;SDS011;27984;51.476;5.702;2024-02-23T09:16:34;6.60;;;1.35;;
42332;SDS011;27984;51.476;5.702;2024-02-23T09:19:00;7.10;;;1.70;;
42332;SDS011;27984;51.476;5.702;2024-02-23T09:21:26;6.07;;;1.30;;
42332;SDS011;27984;51.476;5.702;2024-02-23T09:23:52;5.63;;;1.40;;
42332;SDS011;27984;51.476;5.702;2024-02-23T09:26:18;8.02;;;1.33;;
42332;SDS011;27984;51.476;5.702;2024-02-23T09:28:44;10.68;;;1.70;;
42332;SDS011;27984;51.476;5.702;2024-02-23T09:31:10;9.43;;;1.48;;
42332;SDS011;27984;51.476;5.702;2024-02-23T09:33:36;7.57;;;1.40;;
42332;SDS011;27984;51.476;5.702;2024-02-23T09:36:02;6.53;;;1.80;;
42332;SDS011;27984;51.476;5.702;2024-02-23T09:38:28;5.55;;;1.60;;
42332;SDS011;27984;51.476;5.702;2024-02-23T09:40:57;7.18;;;1.40;;
42332;SDS011;27984;51.476;5.702;2024-02-23T09:43:23;6.05;;;1.10;;
42332;SDS011;27984;51.476;5.702;2024-02-23T09:45:51;5.40;;;1.23;;
42332;SDS011;27984;51.476;5.702;2024-02-23T09:48:18;8.68;;;1.63;;
42332;SDS011;27984;51.476;5.702;2024-02-23T09:50:44;8.90;;;1.30;;
42332;SDS011;27984;51.476;5.702;2024-02-23T09:53:11;6.15;;;1.17;;
42332;SDS011;27984;51.476;5.702;2024-02-23T09:55:37;4.75;;;1.10;;
42332;SDS011;27984;51.476;5.702;2024-02-23T09:58:03;9.43;;;1.48;;
42332;SDS011;27984;51.476;5.702;2024-02-23T10:00:29;4.88;;;1.10;;
42332;SDS011;27984;51.476;5.702;2024-02-23T10:02:55;4.03;;;1.58;;
42332;SDS011;27984;51.476;5.702;2024-02-23T10:05:23;4.90;;;1.05;;
42332;SDS011;27984;51.476;5.702;2024-02-23T10:07:55;3.45;;;1.45;;
42332;SDS011;27984;51.476;5.702;2024-02-23T10:10:24;6.95;;;1.55;;
42332;SDS011;27984;51.476;5.702;2024-02-23T10:12:51;7.63;;;1.63;;
42332;SDS011;27984;51.476;5.702;2024-02-23T10:15:17;7.50;;;1.70;;
42332;SDS011;27984;51.476;5.702;2024-02-23T10:17:43;2.58;;;1.20;;
42332;SDS011;27984;51.476;5.702;2024-02-23T10:20:10;5.05;;;1.33;;
42332;SDS011;27984;51.476;5.702;2024-02-23T10:22:36;4.22;;;1.30;;
42332;SDS011;27984;51.476;5.702;2024-02-23T10:25:02;5.63;;;1.17;;
42332;SDS011;27984;51.476;5.702;2024-02-23T10:27:28;5.13;;;1.35;;
42332;SDS011;27984;51.476;5.702;2024-02-23T10:29:54;5.88;;;1.25;;
42332;SDS011;27984;51.476;5.702;2024-02-23T10:32:20;6.57;;;1.27;;
42332;SDS011;27984;51.476;5.702;2024-02-23T10:34:49;8.15;;;1.45;;
42332;SDS011;27984;51.476;5.702;2024-02-23T10:37:15;6.47;;;1.48;;
42332;SDS011;27984;51.476;5.702;2024-02-23T10:39:42;6.95;;;1.27;;
42332;SDS011;27984;51.476;5.702;2024-02-23T10:42:08;4.57;;;1.17;;
42332;SDS011;27984;51.476;5.702;2024-02-23T10:44:36;5.35;;;1.52;;
42332;SDS011;27984;51.476;5.702;2024-02-23T10:47:02;7.95;;;1.63;;
42332;SDS011;27984;51.476;5.702;2024-02-23T10:49:30;5.00;;;1.42;;
42332;SDS011;27984;51.476;5.702;2024-02-23T10:51:56;8.23;;;1.20;;
42332;SDS011;27984;51.476;5.702;2024-02-23T10:54:22;4.47;;;1.33;;
42332;SDS011;27984;51.476;5.702;2024-02-23T10:56:49;4.78;;;1.30;;
42332;SDS011;27984;51.476;5.702;2024-02-23T10:59:19;6.72;;;1.42;;
42332;SDS011;27984;51.476;5.702;2024-02-23T11:01:56;4.35;;;1.38;;
42332;SDS011;27984;51.476;5.702;2024-02-23T11:04:24;7.65;;;1.45;;
42332;SDS011;27984;51.476;5.702;2024-02-23T11:06:51;7.03;;;1.48;;
42332;SDS011;27984;51.476;5.702;2024-02-23T11:09:20;5.50;;;1.45;;
42332;SDS011;27984;51.476;5.702;2024-02-23T11:11:57;5.13;;;1.70;;
42332;SDS011;27984;51.476;5.702;2024-02-23T11:14:56;5.65;;;1.65;;
42332;SDS011;27984;51.476;5.702;2024-02-23T11:17:19;13.65;;;1.65;;
42332;SDS011;27984;51.476;5.702;2024-02-23T11:19:45;7.78;;;1.40;;
42332;SDS011;27984;51.476;5.702;2024-02-23T11:22:12;4.82;;;1.52;;
42332;SDS011;27984;51.476;5.702;2024-02-23T11:24:41;6.53;;;1.35;;
42332;SDS011;27984;51.476;5.702;2024-02-23T11:27:12;6.25;;;1.30;;
42332;SDS011;27984;51.476;5.702;2024-02-23T11:29:39;7.65;;;1.85;;
42332;SDS011;27984;51.476;5.702;2024-02-23T11:32:17;5.88;;;1.50;;
42332;SDS011;27984;51.476;5.702;2024-02-23T11:34:56;4.07;;;1.50;;
42332;SDS011;27984;51.476;5.702;2024-02-23T11:37:22;5.60;;;1.33;;
42332;SDS011;27984;51.476;5.702;2024-02-23T11:39:48;6.82;;;1.40;;
42332;SDS011;27984;51.476;5.702;2024-02-23T11:42:14;3.53;;;1.13;;
42332;SDS011;27984;51.476;5.702;2024-02-23T11:44:41;6.95;;;1.38;;
42332;SDS011;27984;51.476;5.702;2024-02-23T11:47:07;6.32;;;1.50;;
42332;SDS011;27984;51.476;5.702;2024-02-23T11:49:33;7.03;;;1.50;;
42332;SDS011;27984;51.476;5.702;2024-02-23T11:51:59;5.63;;;1.30;;
42332;SDS011;27984;51.476;5.702;2024-02-23T11:54:25;2.67;;;1.08;;
42332;SDS011;27984;51.476;5.702;2024-02-23T11:56:51;4.35;;;1.20;;
42332;SDS011;27984;51.476;5.702;2024-02-23T11:59:20;7.05;;;1.40;;
42332;SDS011;27984;51.476;5.702;2024-02-23T12:01:48;5.25;;;1.35;;
42332;SDS011;27984;51.476;5.702;2024-02-23T12:04:14;3.40;;;1.50;;
42332;SDS011;27984;51.476;5.702;2024-02-23T12:06:41;3.38;;;1.40;;
42332;SDS011;27984;51.476;5.702;2024-02-23T12:09:16;4.50;;;1.20;;
42332;SDS011;27984;51.476;5.702;2024-02-23T12:14:18;6.40;;;1.20;;
42332;SDS011;27984;51.476;5.702;2024-02-23T12:16:44;6.68;;;1.50;;
42332;SDS011;27984;51.476;5.702;2024-02-23T12:24:32;3.78;;;1.20;;
42332;SDS011;27984;51.476;5.702;2024-02-23T12:27:27;4.20;;;1.30;;
42332;SDS011;27984;51.476;5.702;2024-02-23T12:30:03;3.58;;;1.20;;
42332;SDS011;27984;51.476;5.702;2024-02-23T12:32:38;3.83;;;1.40;;
42332;SDS011;27984;51.476;5.702;2024-02-23T12:35:24;6.45;;;2.45;;
42332;SDS011;27984;51.476;5.702;2024-02-23T12:38:07;3.92;;;1.10;;
42332;SDS011;27984;51.476;5.702;2024-02-23T12:40:34;3.75;;;1.33;;
42332;SDS011;27984;51.476;5.702;2024-02-23T12:43:00;7.75;;;1.48;;
42332;SDS011;27984;51.476;5.702;2024-02-23T12:45:26;5.63;;;1.30;;
42332;SDS011;27984;51.476;5.702;2024-02-23T12:47:52;5.00;;;1.35;;
42332;SDS011;27984;51.476;5.702;2024-02-23T12:50:25;4.03;;;1.15;;
42332;SDS011;27984;51.476;5.702;2024-02-23T12:52:51;5.60;;;1.45;;
42332;SDS011;27984;51.476;5.702;2024-02-23T12:55:17;3.67;;;1.30;;
42332;SDS011;27984;51.476;5.702;2024-02-23T12:57:43;6.90;;;1.60;;
42332;SDS011;27984;51.476;5.702;2024-02-23T13:00:09;5.70;;;1.40;;
42332;SDS011;27984;51.476;5.702;2024-02-23T13:02:38;5.22;;;1.20;;
42332;SDS011;27984;51.476;5.702;2024-02-23T13:05:04;3.85;;;1.48;;
42332;SDS011;27984;51.476;5.702;2024-02-23T13:07:30;6.35;;;1.40;;
42332;SDS011;27984;51.476;5.702;2024-02-23T13:09:56;3.70;;;1.10;;
42332;SDS011;27984;51.476;5.702;2024-02-23T13:12:22;5.15;;;1.50;;
42332;SDS011;27984;51.476;5.702;2024-02-23T13:14:50;6.07;;;1.33;;
42332;SDS011;27984;51.476;5.702;2024-02-23T13:17:16;5.47;;;1.20;;
42332;SDS011;27984;51.476;5.702;2024-02-23T13:19:42;4.90;;;1.00;;
42332;SDS011;27984;51.476;5.702;2024-02-23T13:22:08;4.22;;;1.17;;
42332;SDS011;27984;51.476;5.702;2024-02-23T13:24:34;4.68;;;1.25;;
42332;SDS011;27984;51.476;5.702;2024-02-23T13:27:00;6.25;;;1.35;;
42332;SDS011;27984;51.476;5.702;2024-02-23T13:29:27;4.40;;;1.20;;
42332;SDS011;27984;51.476;5.702;2024-02-23T13:31:52;2.92;;;1.05;;
42332;SDS011;27984;51.476;5.702;2024-02-23T13:34:19;5.40;;;0.98;;
42332;SDS011;27984;51.476;5.702;2024-02-23T13:36:45;4.53;;;1.23;;
42332;SDS011;27984;51.476;5.702;2024-02-23T13:39:11;4.70;;;0.95;;
42332;SDS011;27984;51.476;5.702;2024-02-23T13:41:37;4.97;;;1.23;;
42332;SDS011;27984;51.476;5.702;2024-02-23T13:44:03;3.65;;;1.17;;
42332;SDS011;27984;51.476;5.702;2024-02-23T13:46:29;6.65;;;1.20;;
42332;SDS011;27984;51.476;5.702;2024-02-23T13:49:08;6.65;;;1.63;;
42332;SDS011;27984;51.476;5.702;2024-02-23T13:51:34;5.40;;;1.23;;
42332;SDS011;27984;51.476;5.702;2024-02-23T13:54:00;4.38;;;1.30;;
42332;SDS011;27984;51.476;5.702;2024-02-23T13:56:28;8.68;;;1.40;;
42332;SDS011;27984;51.476;5.702;2024-02-23T13:58:54;6.35;;;1.45;;
42332;SDS011;27984;51.476;5.702;2024-02-23T14:01:20;4.88;;;1.20;;
42332;SDS011;27984;51.476;5.702;2024-02-23T14:03:46;4.72;;;1.27;;
42332;SDS011;27984;51.476;5.702;2024-02-23T14:06:12;5.70;;;1.40;;
42332;SDS011;27984;51.476;5.702;2024-02-23T14:08:38;2.83;;;1.00;;
42332;SDS011;27984;51.476;5.702;2024-02-23T14:11:04;4.50;;;1.30;;
42332;SDS011;27984;51.476;5.702;2024-02-23T14:13:33;4.32;;;1.38;;
42332;SDS011;27984;51.476;5.702;2024-02-23T14:15:59;7.00;;;1.30;;
42332;SDS011;27984;51.476;5.702;2024-02-23T14:18:26;9.65;;;1.63;;
42332;SDS011;27984;51.476;5.702;2024-02-23T14:20:52;7.95;;;1.65;;
42332;SDS011;27984;51.476;5.702;2024-02-23T14:23:18;4.55;;;1.10;;
42332;SDS011;27984;51.476;5.702;2024-02-23T14:25:44;6.88;;;1.60;;
42332;SDS011;27984;51.476;5.702;2024-02-23T14:28:10;5.18;;;1.48;;
42332;SDS011;27984;51.476;5.702;2024-02-23T14:30:37;5.85;;;1.50;;
42332;SDS011;27984;51.476;5.702;2024-02-23T14:33:05;6.15;;;1.38;;
42332;SDS011;27984;51.476;5.702;2024-02-23T14:35:31;3.28;;;1.20;;
42332;SDS011;27984;51.476;5.702;2024-02-23T14:37:57;8.02;;;1.58;;
42332;SDS011;27984;51.476;5.702;2024-02-23T14:40:23;7.10;;;1.27;;
42332;SDS011;27984;51.476;5.702;2024-02-23T14:42:49;6.00;;;1.40;;
42332;SDS011;27984;51.476;5.702;2024-02-23T14:45:15;8.40;;;1.77;;
42332;SDS011;27984;51.476;5.702;2024-02-23T14:47:41;5.25;;;1.27;;
42332;SDS011;27984;51.476;5.702;2024-02-23T14:50:09;5.05;;;1.58;;
42332;SDS011;27984;51.476;5.702;2024-02-23T14:52:35;9.50;;;1.50;;